createdAt,value
2023-02-15T00:02:23.909Z,1025.6
2023-02-15T00:17:58.572Z,1025.6
2023-02-15T00:33:32.879Z,1025.6
2023-02-15T00:49:07.370Z,1025.6
2023-02-15T01:04:41.697Z,1025.6
2023-02-15T01:20:16.095Z,1025.6
2023-02-15T01:35:50.370Z,1025.4
2023-02-15T01:51:24.664Z,1025.2
2023-02-15T02:06:58.945Z,1025
2023-02-15T02:22:33.280Z,1025.1
2023-02-15T02:38:07.569Z,1024.9
2023-02-15T02:53:41.982Z,1024.7
2023-02-15T03:09:16.286Z,1024.8
2023-02-15T03:24:50.596Z,1024.8
2023-02-15T03:40:24.949Z,1024.8
2023-02-15T03:55:59.273Z,1024.8
2023-02-15T04:11:33.659Z,1024.7
2023-02-15T04:27:07.961Z,1024.8
2023-02-15T04:42:42.224Z,1024.7
2023-02-15T04:58:16.495Z,1024.5
2023-02-15T05:13:50.769Z,1024.3
2023-02-15T05:29:25.036Z,1024.2
2023-02-15T05:44:59.813Z,1024.1
2023-02-15T06:00:34.169Z,1024.2
2023-02-15T06:16:08.516Z,1024.3
2023-02-15T06:31:43.014Z,1024.4
2023-02-15T06:47:17.684Z,1024.4
2023-02-15T07:02:51.708Z,1024.4
2023-02-15T07:18:25.969Z,1024.2
2023-02-15T07:34:00.242Z,1023.9
2023-02-15T07:49:34.590Z,1023.8
2023-02-15T08:05:08.926Z,1023.6
2023-02-15T08:20:43.278Z,1023.4
2023-02-15T08:36:17.578Z,1023.4
2023-02-15T08:51:51.956Z,1023.2
2023-02-15T09:07:26.342Z,1023.1
2023-02-15T09:23:00.853Z,1022.9
2023-02-15T09:38:36.267Z,1022.8
2023-02-15T09:54:11.010Z,1022.8
2023-02-15T10:09:45.321Z,1022.6
2023-02-15T10:25:19.773Z,1022.5
2023-02-15T10:40:55.289Z,1022.3
2023-02-15T10:56:29.880Z,1022.2
2023-02-15T11:12:04.310Z,1021.8
2023-02-15T11:27:38.642Z,1021.4
2023-02-15T11:43:13.164Z,1021
2023-02-15T11:58:47.795Z,1020.6
2023-02-15T12:14:22.233Z,1020.4
2023-02-15T12:29:56.898Z,1020.3
2023-02-15T12:45:31.910Z,1020.2
2023-02-15T13:01:06.465Z,1019.9
2023-02-15T13:16:41.155Z,1019.7
2023-02-15T13:32:17.749Z,1019.3
2023-02-15T13:47:52.255Z,1019.3
2023-02-15T14:03:26.820Z,1019.2
2023-02-15T14:19:01.763Z,1019.3
2023-02-15T14:34:36.351Z,1019
2023-02-15T14:50:10.915Z,1019
2023-02-15T15:05:45.692Z,1019
2023-02-15T15:21:20.603Z,1019.1
2023-02-15T15:36:55.133Z,1019.1
2023-02-15T15:52:29.756Z,1019.3
2023-02-15T16:08:04.285Z,1019.3
2023-02-15T16:23:38.746Z,1019.4
2023-02-15T16:39:12.949Z,1019.3
2023-02-15T16:54:47.444Z,1019.4
2023-02-15T17:10:21.885Z,1019.6
2023-02-15T17:25:56.385Z,1019.7
2023-02-15T17:41:31.079Z,1019.9
2023-02-15T17:57:05.629Z,1020
2023-02-15T18:12:40.258Z,1020
2023-02-15T18:28:14.704Z,1019.9
2023-02-15T18:43:49.134Z,1020
2023-02-15T18:59:23.641Z,1020
2023-02-15T19:14:58.014Z,1020.1
2023-02-15T19:30:32.428Z,1020
2023-02-15T19:46:07.608Z,1020.1
2023-02-15T20:01:42.446Z,1020
2023-02-15T20:17:16.938Z,1020.1
2023-02-15T20:32:51.288Z,1020.1
2023-02-15T20:48:25.865Z,1020.1
2023-02-15T21:04:00.585Z,1020.2
2023-02-15T21:19:35.137Z,1020.3
2023-02-15T21:35:09.512Z,1020.3
2023-02-15T21:50:43.846Z,1020.2
2023-02-15T22:06:18.441Z,1020.2
2023-02-15T22:21:52.875Z,1020.2
2023-02-15T22:37:27.213Z,1020.3
2023-02-15T22:53:01.577Z,1020.4
2023-02-15T23:08:35.940Z,1020.3
2023-02-15T23:24:10.282Z,1020.3
2023-02-15T23:39:44.607Z,1020.2
2023-02-15T23:55:18.933Z,1020.2
